Scroll down
FLIGHT INFORMATION
British Airways

BAW2202

At Arrival Gate

MMUN
 EGKK
DATE: 2021-08-11
GATE: G14
GATE DEPARTURE: 22:40
TAKEOFF: 22:53
DATE: 2021-08-12
GATE:  -
LANDING: 08:06
GATE ARRIVAL: 08:16
FLIGHT DATA
Crew: 
Speed: 
918 kph
Altitude: 
39,063 ft
Stage Length: 
7,976.0 km
Block Time: 
9.5 hrs
Flight Time: 
9.2 hrs
Fuel Used: 
59,720 kg
Cleared Route: MMUN NUKAN ABANN PODON FRANT EMOVI MAXIM LULLS TUNSL GOPEY LINEY SAXXN CANVI ZFP CANIT CARPX UKOKA OMALA ONGOT GOUGH KINER OVAPI MUNEY JEBBY LOMPI JAROM 4650N 4940N 5130N 5220N LIMRI EVRIN NEKAP LAZTU ABDUK NUMPO OKESI HOFIK BEDEK EGKK
TRACK DATA
50,000 ft 1,000 kts
AIRCRAFT INFO AND CUMULATIVE STATS
Aircraft Type: 
B772
Registration: 
SELCAL: 
BKAH
MSN/LN: 
30307 / 281
Operator: 
Total Flights: 
2
Total Block Time: 
19.7 hrs
Total Flight Time: 
19.2 hrs
Total Fuel Used: 
126,392 kg
DATALINK LOG | Newest first | Current as of: 2022-10-05 20:55:39
LABEL SEQUENCE CONTENT Dn/Up
5Z193412 AUG 21 08:19:29z / FLT DECK GOOD / ACF POS GOOD / GRND SERVICES GOOD / MAINT GOOD▼ Dn
QD173208:16 12.7▼ Dn
QC072408:06▼ Dn
2U5327EGKK 120720Z 17005KT 140V200 9999 SCT004 BKN008 17/16 Q1018▲ Up
2S5411EGKK▼ Dn
GA0634GATE PENDING▲ Up
GR0624EGKK 08:02 HI-VAL NO DIPL/VIP NO▼ Dn
2U5605EGKK 120620Z 20004KT 160V230 9999 SCT007 BKN010 17/16 Q1018▲ Up
2S5614EGKK▼ Dn
UM201347CLEARED TO FL 390▲ Up
DM61336REQUEST FL 390 DUE TO A/C PERF▼ Dn
UM791144CLX 0211 210812 CYQX CLRNCE 964 BAW2202 CLEARED TO EGKK VIA JAROM 4650N 4940N 5130N 5220N LIMRI EVRIN MNTN F390 M083 BKAH.▲ Up
UM251134REQUESTING OCEANIC CLRNC CT KZWY CS EP JAROM FL 390 ETA 07:51 SPD M0.83▼ Dn
QB542222:53▼ Dn
QA400922:40 144.6▼ Dn
5Z390811 AUG 21 22:39:06z / FLT DECK GOOD / ACF POS GOOD / GRND SERVICES GOOD / MAINT GOOD▼ Dn
2U2051MMUN 112142Z 00000KT 6SM SCT015 BKN080 OVC250 29/26 A2998 RMK 8/577 BINOVC LWR VSBY W▲ Up
2S2052MMUN▼ Dn
A31858CLEARED TO EGKK VIA NUKA1A NUKAN UG765 MAXIM Y262 LULLS Y196 TUNSL Y262 ZFP AR23 CANIT M202 LOMPI N31F JAROM 4650N 4940N 5130N 5220N LIMRI EVRIN L607 NUMPO P2 BEDEK BEDE1G. SQUAWK 4077.▲ Up
B31848MMUN EGKK BAW2202 G-YMMF ▼ Dn
Q00839[LINK ACK]▲ Up
Q00839[LINK TEST]▼ Dn


AIRCRAFT HISTORY
FLIGHT DATE FLIGHT NO. ORIGIN DESTINATION CLEARED ROUTE BLOCK TIME FLIGHT TIME FUEL USED PILOT
2021-08-11BAW2202MMUN EGKK MMUN NUKAN ABANN PODON FRANT EMOVI MAXIM LULLS TUNSL GOPEY LINEY SAXXN CANVI ZFP CANIT CARPX UKOKA OMALA ONGOT GOUGH KINER OVAPI MUNEY JEBBY LOMPI JAROM 4650N 4940N 5130N 5220N LIMRI EVRIN NEKAP LAZTU ABDUK NUMPO OKESI HOFIK BEDEK EGKK9.5 hrs9.2 hrs131,661 lbAnton Vind
2021-08-09BAW2203EGKK MMUN EGKK NOVMA NIBDA HAZEL SAM NULGU ADKIK HICAP MERLY MOPAT RESNO 5520N 5630N 5640N 5450N NEEKO YRI YJN SYR AUDIL EXTOL CNTER ZUUCS PSB ESL PSK CAE TAY CTY CIGAR SNOMN MINOW PISAD ALKIM NUDIS ALNUR VOMAR MMUN10.2 hrs10 hrs146,985 lbAnton Vind